| time (UTC) | temp C | wind direction | speed KPH | gust KPH | rain 1hr cm | rain 24hr cm | rain mn cm | humidity % | barometer mb |
| 20260502151907 | 6 | 116 | 14.5 | 22.5 | 0.00 | 0.00 | 0.00 | 56 | 1014.6 |
| 20260502151402 | 6 | 116 | 8.0 | 16.1 | 0.00 | 0.00 | 0.00 | 58 | 1014.5 |
| 20260502150900 | 5 | 107 | 6.4 | 12.9 | 0.00 | 0.00 | 0.00 | 58 | 1014.2 |
| 20260502150356 | 6 | 116 | 6.4 | 14.5 | 0.00 | 0.00 | 0.00 | 57 | 1014.2 |
| 20260502130745 | 4 | 136 | 1.6 | 9.7 | 0.00 | 0.00 | 0.00 | 78 | 1013.9 |
| 20260502130242 | 4 | 153 | 6.4 | 9.7 | 0.00 | 0.00 | 0.00 | 79 | 1014.2 |
| 20260502123728 | 3 | 122 | 3.2 | 3.2 | 0.00 | 0.00 | 0.00 | 88 | 1014.0 |
| 20260502123225 | 2 | 122 | 1.6 | 3.2 | 0.00 | 0.00 | 0.00 | 90 | 1014.3 |
| 20260502122722 | 2 | 125 | 0.0 | 0.0 | 0.00 | 0.00 | 0.00 | 91 | 1014.4 |
| 20260502122218 | 2 | 128 | 0.0 | 0.0 | 0.00 | 0.00 | 0.00 | 92 | 1013.9 |
| 20260502121717 | 2 | 131 | 0.0 | 0.0 | 0.00 | 0.00 | 0.00 | 97 | 1014.3 |
| 20260502121214 | 2 | 136 | 0.0 | 0.0 | 0.00 | 0.00 | 0.00 | 98 | 1014.3 |
| 20260502120710 | 2 | 92 | 0.0 | 0.0 | 0.00 | 0.00 | 0.00 | 98 | 1014.4 |
| 20260502120207 | 1 | 59 | 0.0 | 0.0 | 0.00 | 0.00 | 0.00 | 98 | 1014.4 |
| 20260502115705 | 1 | 120 | 0.0 | 0.0 | 0.00 | 0.00 | 0.00 | 98 | 1014.0 |
| 20260502115201 | 1 | 196 | 0.0 | 0.0 | 0.00 | 0.00 | 0.00 | 98 | 1014.2 |
| 20260502114657 | 1 | 196 | 0.0 | 0.0 | 0.00 | 0.00 | 0.00 | 98 | 1014.2 |
| 20260502114154 | 1 | 196 | 0.0 | 0.0 | 0.00 | 0.00 | 0.00 | 98 | 1014.2 |
| 20260502113652 | 1 | 196 | 0.0 | 0.0 | 0.00 | 0.00 | 0.00 | 98 | 1013.9 |
| 20260502113150 | 0 | 196 | 0.0 | 0.0 | 0.00 | 0.00 | 0.00 | 98 | 1013.9 |
| 20260502112647 | 0 | 186 | 0.0 | 0.0 | 0.00 | 0.00 | 0.00 | 98 | 1013.9 |
| 20260502112144 | 0 | 186 | 0.0 | 0.0 | 0.00 | 0.00 | 0.00 | 98 | 1014.3 |
| 20260502111642 | 0 | 186 | 0.0 | 0.0 | 0.00 | 0.00 | 0.00 | 98 | 1014.3 |
| 20260502111139 | 0 | 186 | 0.0 | 0.0 | 0.00 | 0.00 | 0.00 | 98 | 1014.0 |
| 20260502110637 | 0 | 186 | 0.0 | 0.0 | 0.00 | 0.00 | 0.00 | 98 | 1013.9 |
| 20260502110134 | 0 | 186 | 0.0 | 0.0 | 0.00 | 0.00 | 0.00 | 98 | 1014.2 |
| 20260502105631 | 0 | 186 | 0.0 | 0.0 | 0.00 | 0.00 | 0.00 | 98 | 1013.9 |
| 20260502105128 | 0 | 186 | 0.0 | 0.0 | 0.00 | 0.00 | 0.00 | 98 | 1014.0 |
| 20260502104625 | 0 | 184 | 0.0 | 0.0 | 0.00 | 0.00 | 0.00 | 98 | 1014.2 |
| 20260502104123 | 0 | 184 | 0.0 | 0.0 | 0.00 | 0.00 | 0.00 | 98 | 1014.0 |
| 20260502103620 | 0 | 193 | 0.0 | 0.0 | 0.00 | 0.00 | 0.00 | 98 | 1014.4 |
| 20260502103119 | 0 | 193 | 0.0 | 0.0 | 0.00 | 0.00 | 0.00 | 98 | 1014.0 |
| 20260502102615 | 0 | 193 | 0.0 | 0.0 | 0.00 | 0.00 | 0.00 | 98 | 1014.2 |
| 20260502102112 | 0 | 193 | 0.0 | 0.0 | 0.00 | 0.00 | 0.00 | 98 | 1014.0 |
| 20260502101610 | 0 | 193 | 0.0 | 0.0 | 0.00 | 0.00 | 0.00 | 98 | 1014.2 |
| 20260502101108 | 0 | 193 | 0.0 | 0.0 | 0.00 | 0.00 | 0.00 | 98 | 1014.0 |
| 20260502100606 | 0 | 193 | 0.0 | 0.0 | 0.00 | 0.00 | 0.00 | 98 | 1014.2 |
| 20260502100104 | 0 | 193 | 0.0 | 0.0 | 0.00 | 0.00 | 0.00 | 97 | 1014.3 |
| 20260502091038 | 0 | 193 | 0.0 | 0.0 | 0.00 | 0.00 | 0.00 | 97 | 1014.6 |
| 20260502090535 | 0 | 193 | 0.0 | 0.0 | 0.00 | 0.00 | 0.00 | 97 | 1014.4 |
| 20260502071429 | 1 | 193 | 0.0 | 0.0 | 0.00 | 0.00 | 0.00 | 93 | 1014.0 |
| 20260502070927 | 1 | 193 | 0.0 | 0.0 | 0.00 | 0.00 | 0.00 | 93 | 1013.9 |
| 20260502070425 | 1 | 193 | 0.0 | 0.0 | 0.00 | 0.00 | 0.00 | 92 | 1014.0 |
| 20260502065923 | 1 | 193 | 0.0 | 0.0 | 0.00 | 0.00 | 0.00 | 92 | 1013.8 |
| 20260502065422 | 1 | 193 | 0.0 | 0.0 | 0.00 | 0.00 | 0.00 | 92 | 1013.9 |
| 20260502064919 | 1 | 193 | 0.0 | 0.0 | 0.00 | 0.00 | 0.00 | 91 | 1013.9 |
| 20260502064417 | 1 | 193 | 0.0 | 0.0 | 0.00 | 0.00 | 0.00 | 91 | 1014.0 |
| 20260502063914 | 1 | 193 | 0.0 | 0.0 | 0.00 | 0.00 | 0.00 | 91 | 1014.2 |
| 20260502063411 | 1 | 193 | 0.0 | 0.0 | 0.00 | 0.00 | 0.00 | 90 | 1014.0 |
| 20260502062909 | 2 | 193 | 0.0 | 0.0 | 0.00 | 0.00 | 0.00 | 89 | 1014.0 |
| 20260502062406 | 2 | 193 | 0.0 | 0.0 | 0.00 | 0.00 | 0.00 | 89 | 1014.3 |
| 20260502061905 | 2 | 200 | 0.0 | 0.0 | 0.00 | 0.00 | 0.00 | 88 | 1014.5 |
| 20260502061402 | 2 | 154 | 0.0 | 0.0 | 0.00 | 0.00 | 0.00 | 88 | 1014.4 |
| 20260502060858 | 2 | 146 | 0.0 | 0.0 | 0.00 | 0.00 | 0.00 | 87 | 1014.4 |
| 20260502060353 | 2 | 146 | 0.0 | 0.0 | 0.00 | 0.00 | 0.00 | 86 | 1014.5 |
| 20260502055851 | 3 | 129 | 0.0 | 3.2 | 0.00 | 0.00 | 0.00 | 84 | 1014.4 |
| 20260502055348 | 3 | 119 | 0.0 | 0.0 | 0.00 | 0.00 | 0.00 | 84 | 1014.6 |
| 20260502054848 | 3 | 121 | 0.0 | 0.0 | 0.00 | 0.00 | 0.00 | 83 | 1014.5 |
| 20260502054345 | 3 | 77 | 0.0 | 0.0 | 0.00 | 0.00 | 0.00 | 84 | 1014.6 |
| 20260502053842 | 3 | 73 | 0.0 | 1.6 | 0.00 | 0.00 | 0.00 | 83 | 1014.6 |
| 20260502053339 | 3 | 159 | 0.0 | 1.6 | 0.00 | 0.00 | 0.00 | 83 | 1014.3 |
| 20260502052837 | 4 | 156 | 3.2 | 4.8 | 0.00 | 0.00 | 0.00 | 80 | 1014.4 |
| 20260502052335 | 4 | 88 | 1.6 | 6.4 | 0.00 | 0.00 | 0.00 | 80 | 1014.6 |
| 20260502051832 | 4 | 98 | 1.6 | 3.2 | 0.00 | 0.00 | 0.00 | 80 | 1014.5 |
| 20260502051331 | 4 | 122 | 3.2 | 4.8 | 0.00 | 0.00 | 0.00 | 81 | 1014.3 |
| 20260502050827 | 4 | 113 | 6.4 | 6.4 | 0.00 | 0.00 | 0.00 | 81 | 1014.6 |
| 20260502050324 | 4 | 101 | 6.4 | 9.7 | 0.00 | 0.00 | 0.00 | 81 | 1014.9 |
| 20260502045821 | 5 | 146 | 1.6 | 3.2 | 0.00 | 0.00 | 0.00 | 84 | 1014.8 |
| 20260502045317 | 5 | 94 | 1.6 | 3.2 | 0.00 | 0.00 | 0.00 | 83 | 1014.9 |
| 20260502044815 | 5 | 119 | 3.2 | 3.2 | 0.00 | 0.00 | 0.00 | 83 | 1014.6 |
| 20260502044310 | 5 | 135 | 0.0 | 4.8 | 0.00 | 0.00 | 0.00 | 83 | 1014.5 |
| 20260502043808 | 5 | 145 | 1.6 | 3.2 | 0.00 | 0.00 | 0.00 | 83 | 1014.7 |
| 20260502043305 | 5 | 124 | 3.2 | 6.4 | 0.00 | 0.00 | 0.00 | 82 | 1014.6 |
| 20260502042805 | 5 | 142 | 1.6 | 3.2 | 0.00 | 0.00 | 0.00 | 84 | 1014.6 |
| 20260502042305 | 5 | 107 | 4.8 | 11.3 | 0.00 | 0.00 | 0.00 | 83 | 1014.7 |
| 20260502041800 | 5 | 123 | 0.0 | 1.6 | 0.00 | 0.00 | 0.00 | 84 | 1014.7 |
| 20260502041257 | 5 | 147 | 0.0 | 1.6 | 0.00 | 0.00 | 0.00 | 85 | 1015.0 |
| 20260502040754 | 5 | 134 | 4.8 | 6.4 | 0.00 | 0.00 | 0.00 | 84 | 1014.8 |
| 20260502040251 | 5 | 153 | 4.8 | 6.4 | 0.00 | 0.00 | 0.00 | 84 | 1014.7 |
| 20260502035747 | 5 | 133 | 4.8 | 12.9 | 0.00 | 0.00 | 0.00 | 84 | 1014.7 |
| 20260502035244 | 5 | 108 | 4.8 | 12.9 | 0.00 | 0.00 | 0.00 | 85 | 1014.7 |
| 20260502034741 | 6 | 116 | 11.3 | 12.9 | 0.00 | 0.00 | 0.00 | 85 | 1014.5 |
| 20260502034239 | 6 | 105 | 8.0 | 11.3 | 0.00 | 0.00 | 0.00 | 84 | 1014.6 |
| 20260502033737 | 6 | 121 | 4.8 | 17.7 | 0.00 | 0.00 | 0.00 | 84 | 1014.8 |
| 20260502033235 | 6 | 102 | 3.2 | 4.8 | 0.00 | 0.00 | 0.00 | 84 | 1014.7 |
| 20260502032731 | 6 | 121 | 9.7 | 11.3 | 0.00 | 0.00 | 0.00 | 83 | 1014.6 |
| 20260502032227 | 6 | 24 | 3.2 | 6.4 | 0.00 | 0.00 | 0.00 | 83 | 1014.7 |
| 20260502031725 | 6 | 71 | 0.0 | 3.2 | 0.00 | 0.00 | 0.00 | 83 | 1014.5 |
| 20260502031223 | 6 | 114 | 3.2 | 12.9 | 0.00 | 0.00 | 0.00 | 82 | 1014.4 |
| 20260502030721 | 6 | 119 | 4.8 | 6.4 | 0.00 | 0.00 | 0.00 | 82 | 1014.5 |
| 20260502030219 | 6 | 106 | 1.6 | 4.8 | 0.00 | 0.00 | 0.00 | 82 | 1014.6 |
| 20260502025716 | 6 | 119 | 3.2 | 11.3 | 0.00 | 0.00 | 0.00 | 82 | 1014.5 |
| 20260502025214 | 6 | 104 | 3.2 | 6.4 | 0.00 | 0.00 | 0.00 | 82 | 1014.3 |
| 20260502024711 | 6 | 105 | 6.4 | 9.7 | 0.00 | 0.00 | 0.00 | 81 | 1014.5 |
| 20260502024209 | 6 | 91 | 1.6 | 4.8 | 0.00 | 0.00 | 0.00 | 81 | 1014.7 |
| 20260502023707 | 6 | 121 | 4.8 | 9.7 | 0.00 | 0.00 | 0.00 | 80 | 1014.5 |
| 20260502023204 | 6 | 78 | 3.2 | 9.7 | 0.00 | 0.00 | 0.00 | 81 | 1014.5 |
| 20260502022701 | 6 | 105 | 4.8 | 6.4 | 0.00 | 0.00 | 0.00 | 81 | 1014.3 |
| 20260502022158 | 6 | 116 | 1.6 | 4.8 | 0.00 | 0.00 | 0.00 | 81 | 1014.2 |
| 20260502021655 | 6 | 118 | 4.8 | 9.7 | 0.00 | 0.00 | 0.00 | 80 | 1014.2 |
| 20260502021153 | 7 | 121 | 0.0 | 0.0 | 0.00 | 0.00 | 0.00 | 80 | 1013.9 |
| 20260502020649 | 7 | 102 | 1.6 | 1.6 | 0.00 | 0.00 | 0.00 | 80 | 1013.9 |
| 20260502020146 | 7 | 119 | 3.2 | 4.8 | 0.00 | 0.00 | 0.00 | 79 | 1013.8 |
| 20260502015644 | 7 | 98 | 3.2 | 4.8 | 0.00 | 0.00 | 0.00 | 79 | 1013.8 |
| 20260502015140 | 7 | 121 | 4.8 | 6.4 | 0.00 | 0.00 | 0.00 | 78 | 1013.9 |
| 20260502014638 | 7 | 127 | 0.0 | 1.6 | 0.00 | 0.00 | 0.00 | 78 | 1013.8 |
| 20260502014135 | 7 | 94 | 0.0 | 1.6 | 0.00 | 0.00 | 0.00 | 78 | 1013.8 |
| 20260502013631 | 7 | 26 | 3.2 | 4.8 | 0.00 | 0.00 | 0.00 | 77 | 1013.8 |
| 20260502013126 | 7 | 127 | 1.6 | 3.2 | 0.00 | 0.00 | 0.00 | 76 | 1013.7 |
| 20260502012624 | 7 | 105 | 3.2 | 4.8 | 0.00 | 0.00 | 0.00 | 76 | 1013.8 |
| 20260502012122 | 7 | 114 | 3.2 | 4.8 | 0.00 | 0.00 | 0.00 | 75 | 1013.7 |
| 20260502011618 | 7 | 94 | 1.6 | 6.4 | 0.00 | 0.00 | 0.00 | 75 | 1013.8 |
| 20260502011114 | 7 | 125 | 3.2 | 6.4 | 0.00 | 0.00 | 0.00 | 75 | 1013.6 |
| 20260502010612 | 7 | 111 | 3.2 | 4.8 | 0.00 | 0.00 | 0.00 | 74 | 1013.7 |
| 20260502010108 | 7 | 123 | 3.2 | 6.4 | 0.00 | 0.00 | 0.00 | 74 | 1013.6 |
| 20260502005606 | 7 | 84 | 3.2 | 12.9 | 0.00 | 0.00 | 0.00 | 74 | 1013.7 |
| 20260502005103 | 7 | 151 | 4.8 | 4.8 | 0.00 | 0.00 | 0.00 | 74 | 1013.3 |
| 20260502004559 | 7 | 98 | 8.0 | 12.9 | 0.00 | 0.00 | 0.00 | 73 | 1013.5 |
| 20260502004056 | 7 | 114 | 6.4 | 14.5 | 0.00 | 0.00 | 0.00 | 74 | 1013.3 |
| 20260502003554 | 7 | 117 | 8.0 | 12.9 | 0.00 | 0.00 | 0.00 | 75 | 1013.2 |
| 20260502003050 | 7 | 103 | 6.4 | 16.1 | 0.00 | 0.00 | 0.00 | 79 | 1012.9 |
| 20260502002547 | 7 | 139 | 6.4 | 14.5 | 0.00 | 0.00 | 0.00 | 79 | 1012.9 |
| 20260502002044 | 8 | 125 | 6.4 | 16.1 | 0.00 | 0.00 | 0.00 | 79 | 1012.7 |
| 20260502001542 | 8 | 127 | 8.0 | 14.5 | 0.00 | 0.00 | 0.00 | 80 | 1012.4 |
| 20260502001039 | 8 | 113 | 4.8 | 16.1 | 0.00 | 0.00 | 0.00 | 80 | 1012.5 |
| 20260502000537 | 8 | 108 | 11.3 | 14.5 | 0.00 | 0.00 | 0.00 | 79 | 1012.2 |
| 20260502000034 | 8 | 119 | 6.4 | 11.3 | 0.00 | 0.00 | 0.00 | 79 | 1012.0 |
| 20260501235530 | 8 | 139 | 11.3 | 11.3 | 0.00 | 0.00 | 0.00 | 80 | 1012.0 |
| 20260501235025 | 8 | 115 | 16.1 | 17.7 | 0.00 | 0.00 | 0.00 | 80 | 1011.8 |
| 20260501234521 | 8 | 112 | 12.9 | 17.7 | 0.00 | 0.00 | 0.00 | 80 | 1011.8 |
| 20260501234020 | 8 | 121 | 6.4 | 17.7 | 0.00 | 0.00 | 0.00 | 81 | 1011.9 |
| 20260501233517 | 8 | 118 | 9.7 | 17.7 | 0.00 | 0.00 | 0.00 | 80 | 1011.8 |
| 20260501233014 | 9 | 87 | 4.8 | 12.9 | 0.00 | 0.00 | 0.00 | 79 | 1011.7 |
| 20260501232510 | 9 | 98 | 4.8 | 9.7 | 0.00 | 0.00 | 0.00 | 78 | 1011.9 |
| 20260501232008 | 9 | 128 | 3.2 | 14.5 | 0.00 | 0.00 | 0.00 | 78 | 1011.7 |
| 20260501231506 | 9 | 119 | 9.7 | 12.9 | 0.00 | 0.00 | 0.00 | 77 | 1011.7 |
| 20260501231004 | 9 | 109 | 6.4 | 12.9 | 0.00 | 0.00 | 0.00 | 76 | 1011.5 |
| 20260501230502 | 10 | 117 | 6.4 | 12.9 | 0.00 | 0.00 | 0.00 | 75 | 1011.5 |
| 20260501225959 | 10 | 172 | 3.2 | 4.8 | 0.00 | 0.00 | 0.00 | 74 | 1011.4 |
| 20260501225457 | 10 | 124 | 6.4 | 12.9 | 0.00 | 0.00 | 0.00 | 74 | 1011.6 |
| 20260501224952 | 10 | 130 | 14.5 | 20.9 | 0.00 | 0.00 | 0.00 | 74 | 1011.4 |
| 20260501224450 | 10 | 111 | 4.8 | 9.7 | 0.00 | 0.00 | 0.00 | 72 | 1011.4 |
| 20260501223947 | 10 | 104 | 4.8 | 9.7 | 0.00 | 0.00 | 0.00 | 70 | 1011.0 |
| 20260501223443 | 11 | 115 | 6.4 | 17.7 | 0.00 | 0.00 | 0.00 | 68 | 1011.3 |
| 20260501222939 | 11 | 53 | 9.7 | 17.7 | 0.00 | 0.00 | 0.00 | 66 | 1011.0 |
| 20260501222436 | 11 | 120 | 14.5 | 22.5 | 0.00 | 0.00 | 0.00 | 63 | 1010.9 |
| 20260501221932 | 11 | 103 | 6.4 | 12.9 | 0.00 | 0.00 | 0.00 | 60 | 1010.9 |
| 20260501221430 | 12 | 87 | 6.4 | 12.9 | 0.00 | 0.00 | 0.00 | 57 | 1010.7 |
| 20260501220928 | 12 | 121 | 6.4 | 14.5 | 0.00 | 0.00 | 0.00 | 57 | 1010.5 |
| 20260501220425 | 12 | 100 | 9.7 | 12.9 | 0.00 | 0.00 | 0.00 | 54 | 1010.5 |
| 20260501215921 | 12 | 125 | 12.9 | 29.0 | 0.00 | 0.00 | 0.00 | 54 | 1010.2 |
| 20260501215418 | 13 | 82 | 6.4 | 14.5 | 0.00 | 0.00 | 0.00 | 52 | 1010.4 |
| 20260501214913 | 13 | 95 | 11.3 | 17.7 | 0.00 | 0.00 | 0.00 | 50 | 1010.4 |
| 20260501214408 | 13 | 92 | 9.7 | 12.9 | 0.00 | 0.00 | 0.00 | 48 | 1010.4 |
| 20260501213904 | 13 | 44 | 12.9 | 16.1 | 0.00 | 0.00 | 0.00 | 47 | 1010.5 |
| 20260501213401 | 13 | 94 | 6.4 | 12.9 | 0.00 | 0.00 | 0.00 | 45 | 1010.3 |
| 20260501212857 | 13 | 122 | 14.5 | 17.7 | 0.00 | 0.00 | 0.00 | 44 | 1010.4 |
| 20260501212354 | 13 | 95 | 11.3 | 17.7 | 0.00 | 0.00 | 0.00 | 43 | 1010.4 |
| 20260501211851 | 14 | 87 | 17.7 | 24.1 | 0.00 | 0.00 | 0.00 | 42 | 1010.3 |
| 20260501211348 | 13 | 35 | 9.7 | 12.9 | 0.00 | 0.00 | 0.00 | 41 | 1010.4 |
| 20260501210845 | 14 | 79 | 9.7 | 20.9 | 0.00 | 0.00 | 0.00 | 41 | 1010.3 |
| 20260501210342 | 14 | 150 | 4.8 | 14.5 | 0.00 | 0.00 | 0.00 | 39 | 1010.0 |
| 20260501205839 | 14 | 111 | 6.4 | 9.7 | 0.00 | 0.00 | 0.00 | 38 | 1010.1 |
| 20260501205336 | 14 | 103 | 9.7 | 17.7 | 0.00 | 0.00 | 0.00 | 36 | 1009.9 |
| 20260501204832 | 15 | 113 | 19.3 | 22.5 | 0.00 | 0.00 | 0.00 | 35 | 1009.7 |
| 20260501204329 | 16 | 17 | 4.8 | 12.9 | 0.00 | 0.00 | 0.00 | 31 | 1009.8 |
| 20260501203825 | 15 | 4 | 3.2 | 16.1 | 0.00 | 0.00 | 0.00 | 32 | 1009.8 |
| 20260501203323 | 15 | 26 | 6.4 | 9.7 | 0.00 | 0.00 | 0.00 | 33 | 1009.5 |
| 20260501202820 | 16 | 351 | 6.4 | 12.9 | 0.00 | 0.00 | 0.00 | 32 | 1009.5 |
| 20260501202317 | 17 | 60 | 11.3 | 12.9 | 0.00 | 0.00 | 0.00 | 32 | 1009.5 |
| 20260501201814 | 17 | 60 | 3.2 | 16.1 | 0.00 | 0.00 | 0.00 | 36 | 1009.4 |
| 20260501201310 | 16 | 334 | 8.0 | 14.5 | 0.00 | 0.00 | 0.00 | 30 | 1009.4 |
| 20260501200807 | 16 | 109 | 3.2 | 14.5 | 0.00 | 0.00 | 0.00 | 33 | 1009.5 |
| 20260501200304 | 17 | 94 | 6.4 | 12.9 | 0.00 | 0.00 | 0.00 | 32 | 1009.7 |
| 20260501195801 | 16 | 87 | 11.3 | 14.5 | 0.00 | 0.00 | 0.00 | 31 | 1009.8 |
| 20260501195257 | 15 | 46 | 6.4 | 9.7 | 0.00 | 0.00 | 0.00 | 33 | 1009.8 |
| 20260501194753 | 15 | 94 | 8.0 | 16.1 | 0.00 | 0.00 | 0.00 | 34 | 1009.9 |
| 20260501194249 | 15 | 119 | 19.3 | 24.1 | 0.00 | 0.00 | 0.00 | 32 | 1009.9 |
| 20260501193746 | 16 | 112 | 6.4 | 20.9 | 0.00 | 0.00 | 0.00 | 31 | 1010.0 |
| 20260501193244 | 16 | 121 | 4.8 | 14.5 | 0.00 | 0.00 | 0.00 | 36 | 1010.1 |
| 20260501192741 | 16 | 76 | 6.4 | 12.9 | 0.00 | 0.00 | 0.00 | 33 | 1010.2 |
| 20260501192238 | 17 | 83 | 4.8 | 9.7 | 0.00 | 0.00 | 0.00 | 31 | 1010.0 |
| 20260501191735 | 17 | 25 | 6.4 | 11.3 | 0.00 | 0.00 | 0.00 | 31 | 1010.1 |
| 20260501191233 | 16 | 227 | 6.4 | 14.5 | 0.00 | 0.00 | 0.00 | 37 | 1010.2 |
| 20260501190729 | 15 | 120 | 12.9 | 16.1 | 0.00 | 0.00 | 0.00 | 34 | 1010.1 |
| 20260501190225 | 16 | 12 | 12.9 | 17.7 | 0.00 | 0.00 | 0.00 | 34 | 1010.2 |
| 20260501185721 | 16 | 65 | 9.7 | 16.1 | 0.00 | 0.00 | 0.00 | 33 | 1010.1 |
| 20260501185217 | 16 | 45 | 8.0 | 11.3 | 0.00 | 0.00 | 0.00 | 41 | 1010.1 |
| 20260501184713 | 17 | 60 | 9.7 | 12.9 | 0.00 | 0.00 | 0.00 | 32 | 1010.4 |
| 20260501184209 | 16 | 342 | 6.4 | 11.3 | 0.00 | 0.00 | 0.00 | 31 | 1010.4 |
| 20260501183705 | 15 | 62 | 8.0 | 17.7 | 0.00 | 0.00 | 0.00 | 33 | 1010.4 |
| 20260501183202 | 16 | 21 | 14.5 | 22.5 | 0.00 | 0.00 | 0.00 | 35 | 1010.4 |
| 20260501182658 | 16 | 71 | 11.3 | 14.5 | 0.00 | 0.00 | 0.00 | 34 | 1010.5 |
| 20260501182154 | 16 | 226 | 6.4 | 11.3 | 0.00 | 0.00 | 0.00 | 29 | 1010.5 |
| 20260501181652 | 15 | 33 | 12.9 | 29.0 | 0.00 | 0.00 | 0.00 | 28 | 1010.6 |
| 20260501181149 | 16 | 61 | 8.0 | 11.3 | 0.00 | 0.00 | 0.00 | 31 | 1010.5 |
| 20260501180642 | 15 | 42 | 3.2 | 16.1 | 0.00 | 0.00 | 0.00 | 28 | 1010.7 |
| 20260501180137 | 15 | 33 | 17.7 | 22.5 | 0.00 | 0.00 | 0.00 | 27 | 1010.4 |
| 20260501175634 | 15 | 311 | 8.0 | 11.3 | 0.00 | 0.00 | 0.00 | 33 | 1010.8 |
| 20260501175132 | 15 | 83 | 8.0 | 12.9 | 0.00 | 0.00 | 0.00 | 30 | 1010.5 |
| 20260501174628 | 15 | 101 | 4.8 | 4.8 | 0.00 | 0.00 | 0.00 | 33 | 1010.8 |
| 20260501174126 | 15 | 123 | 6.4 | 14.5 | 0.00 | 0.00 | 0.00 | 33 | 1010.7 |
| 20260501173623 | 15 | 291 | 6.4 | 11.3 | 0.00 | 0.00 | 0.00 | 34 | 1010.6 |
| 20260501173119 | 15 | 55 | 1.6 | 12.9 | 0.00 | 0.00 | 0.00 | 33 | 1010.7 |
| 20260501172615 | 15 | 344 | 4.8 | 9.7 | 0.00 | 0.00 | 0.00 | 33 | 1010.7 |
| 20260501172110 | 15 | 52 | 8.0 | 9.7 | 0.00 | 0.00 | 0.00 | 33 | 1010.9 |
| 20260501171607 | 14 | 344 | 4.8 | 11.3 | 0.00 | 0.00 | 0.00 | 32 | 1010.9 |
| 20260501171104 | 14 | 94 | 1.6 | 12.9 | 0.00 | 0.00 | 0.00 | 34 | 1010.9 |
| 20260501170601 | 15 | 3 | 9.7 | 14.5 | 0.00 | 0.00 | 0.00 | 32 | 1011.0 |
| 20260501170058 | 15 | 6 | 4.8 | 11.3 | 0.00 | 0.00 | 0.00 | 30 | 1010.9 |
| 20260501165555 | 15 | 3 | 6.4 | 20.9 | 0.00 | 0.00 | 0.00 | 33 | 1011.3 |
| 20260501165053 | 15 | 64 | 4.8 | 20.9 | 0.00 | 0.00 | 0.00 | 30 | 1010.9 |
| 20260501164550 | 15 | 304 | 6.4 | 20.9 | 0.00 | 0.00 | 0.00 | 33 | 1010.9 |
| 20260501164047 | 15 | 31 | 3.2 | 4.8 | 0.00 | 0.00 | 0.00 | 29 | 1011.2 |
| 20260501163543 | 14 | 100 | 4.8 | 6.4 | 0.00 | 0.00 | 0.00 | 35 | 1011.3 |
| 20260501163040 | 15 | 75 | 9.7 | 17.7 | 0.00 | 0.00 | 0.00 | 30 | 1011.2 |
| 20260501162537 | 15 | 267 | 3.2 | 9.7 | 0.00 | 0.00 | 0.00 | 33 | 1011.2 |
| 20260501162033 | 15 | 232 | 3.2 | 11.3 | 0.00 | 0.00 | 0.00 | 40 | 1011.4 |
| 20260501161531 | 15 | 230 | 4.8 | 9.7 | 0.00 | 0.00 | 0.00 | 32 | 1011.5 |
| 20260501161027 | 15 | 298 | 8.0 | 12.9 | 0.00 | 0.00 | 0.00 | 32 | 1011.5 |
| 20260501160525 | 15 | 254 | 0.0 | 6.4 | 0.00 | 0.00 | 0.00 | 33 | 1011.5 |
| 20260501160022 | 15 | 338 | 8.0 | 12.9 | 0.00 | 0.00 | 0.00 | 30 | 1011.9 |
| 20260501155517 | 14 | 243 | 3.2 | 11.3 | 0.00 | 0.00 | 0.00 | 30 | 1011.8 |
| 20260501155014 | 14 | 264 | 3.2 | 14.5 | 0.00 | 0.00 | 0.00 | 43 | 1011.9 |